Tartous, Syria

11:52 AM EET on December 20, 2014 (GMT +0200)
Bassel Al-Assad International | Change Station
CLOSE
Current Station
Airport
Location: Lattakia,
Elevation: 154 ft
Nearby Weather Stations

Elev 154 ft 35.40 °N, 35.95 °E | Updated -465 second ago

Mostly Cloudy
Mostly Cloudy
64 °F
Feels Like 64 °F
N
4
Wind Variable Wind from Variable

Today
High -- | Low -- °F
--% Chance of Precip.
Yesterday
High -- | Low -- °F
Precip. -- in
6:39 AM 4:28 PM
Waning Crescent, 4% visible
Pressure 30.09 in
Visibility 6.2 miles
Clouds Few 2600 ft
Scattered Clouds 3000 ft
Mostly Cloudy 10000 ft
Dew Point 48 °F
Humidity 56%
Rainfall 0.00 in
Snow Depth Not available.
UV 2 out of 12
Pollen Not available.
Air Quality Not available.
Flu Activity Not available.
METAR OSLK 201000Z VRB03KT 9999 FEW026 SCT030 BKN100 18/09 Q1019

More Conditions Fewer Conditions

Pressure 30.09 in
Visibility 6.2 miles
Clouds Few 2600 ft
Scattered Clouds 3000 ft
Mostly Cloudy 10000 ft
Dew Point 48 °F
Humidity 56%
Rainfall 0.00 in
Snow Depth Not available.
UV 2 out of 12
Pollen Not available.
Air Quality Not available.
Flu Activity Not available.
METAR OSLK 201000Z VRB03KT 9999 FEW026 SCT030 BKN100 18/09 Q1019

More Conditions Fewer Conditions

10-Day Weather Forecast

Almanac

Astronomy

Dec. 20, 2014 Rise Set
Actual Time
Civil Twilight
Nautical Twilight
Astronomical Twilight
Moon
Length of Visible Light
Length of Day
Tomorrow will be .
, % of the Moon is Illuminated

Today's Extremes

Country Highs Country Lows

Community

WunderPhotos

Upload Photos

1,779,150 photos uploaded!

WunderBlogs® & News

Nearby

Air Quality

  Air Quality AQ Index Pollutant
Not available.

Snow Depth

Station Depth Elevation

Earthquake Activity

City Distance Mag. Time & Date
Minimum magnitude displayed is 2.5.

Coastal Water Temperatures

Place Temperature

Nearby Weather Stations